sensor_id;sensor_type;location;lat;lon;timestamp;temperature;humidity
6206;DHT22;3136;48.788;9.772;2023-02-15T00:01:10;-2.60;99.90
6206;DHT22;3136;48.788;9.772;2023-02-15T00:03:36;-2.70;99.90
6206;DHT22;3136;48.788;9.772;2023-02-15T00:06:02;-2.70;99.90
6206;DHT22;3136;48.788;9.772;2023-02-15T00:08:28;-2.70;99.90
6206;DHT22;3136;48.788;9.772;2023-02-15T00:11:13;-2.70;99.90
6206;DHT22;3136;48.788;9.772;2023-02-15T00:13:39;-2.70;1.00
6206;DHT22;3136;48.788;9.772;2023-02-15T00:16:10;-2.60;1.00
6206;DHT22;3136;48.788;9.772;2023-02-15T00:18:36;-2.60;1.00
6206;DHT22;3136;48.788;9.772;2023-02-15T00:21:07;-2.60;1.00
6206;DHT22;3136;48.788;9.772;2023-02-15T00:23:34;-2.60;1.00
6206;DHT22;3136;48.788;9.772;2023-02-15T00:26:07;-2.70;1.00
6206;DHT22;3136;48.788;9.772;2023-02-15T00:28:33;-2.70;1.00
6206;DHT22;3136;48.788;9.772;2023-02-15T00:31:12;-2.70;1.00
6206;DHT22;3136;48.788;9.772;2023-02-15T00:33:38;-2.70;1.00
6206;DHT22;3136;48.788;9.772;2023-02-15T00:36:06;-2.80;1.00
6206;DHT22;3136;48.788;9.772;2023-02-15T00:38:33;-2.80;1.00
6206;DHT22;3136;48.788;9.772;2023-02-15T00:41:01;-2.80;1.00
6206;DHT22;3136;48.788;9.772;2023-02-15T00:43:27;-2.90;1.00
6206;DHT22;3136;48.788;9.772;2023-02-15T00:45:54;-2.90;1.00
6206;DHT22;3136;48.788;9.772;2023-02-15T00:48:20;-2.90;1.00
6206;DHT22;3136;48.788;9.772;2023-02-15T00:50:49;-2.90;1.00
6206;DHT22;3136;48.788;9.772;2023-02-15T00:53:16;-3.00;1.00
6206;DHT22;3136;48.788;9.772;2023-02-15T00:55:41;-3.00;1.00
6206;DHT22;3136;48.788;9.772;2023-02-15T00:58:08;-3.00;1.00
6206;DHT22;3136;48.788;9.772;2023-02-15T01:00:34;-3.00;1.00
6206;DHT22;3136;48.788;9.772;2023-02-15T01:03:00;-3.10;1.00
6206;DHT22;3136;48.788;9.772;2023-02-15T01:05:26;-3.10;1.00
6206;DHT22;3136;48.788;9.772;2023-02-15T01:07:52;-3.10;1.00
6206;DHT22;3136;48.788;9.772;2023-02-15T01:10:17;-3.10;1.00
6206;DHT22;3136;48.788;9.772;2023-02-15T01:12:43;-3.10;1.00
6206;DHT22;3136;48.788;9.772;2023-02-15T01:15:09;-3.10;1.00
6206;DHT22;3136;48.788;9.772;2023-02-15T01:17:34;-3.20;1.00
6206;DHT22;3136;48.788;9.772;2023-02-15T01:20:00;-3.20;1.00
6206;DHT22;3136;48.788;9.772;2023-02-15T01:22:26;-3.20;1.00
6206;DHT22;3136;48.788;9.772;2023-02-15T01:24:52;-3.20;1.00
6206;DHT22;3136;48.788;9.772;2023-02-15T01:27:18;-3.20;1.00
6206;DHT22;3136;48.788;9.772;2023-02-15T01:29:44;-3.20;1.00
6206;DHT22;3136;48.788;9.772;2023-02-15T01:32:09;-3.20;1.00
6206;DHT22;3136;48.788;9.772;2023-02-15T01:34:35;-3.20;1.00
6206;DHT22;3136;48.788;9.772;2023-02-15T01:37:00;-3.20;1.00
6206;DHT22;3136;48.788;9.772;2023-02-15T01:39:26;-3.20;1.00
6206;DHT22;3136;48.788;9.772;2023-02-15T01:41:52;-3.30;1.00
6206;DHT22;3136;48.788;9.772;2023-02-15T01:44:46;-3.30;1.00
6206;DHT22;3136;48.788;9.772;2023-02-15T01:47:22;-3.30;1.00
6206;DHT22;3136;48.788;9.772;2023-02-15T01:49:57;-3.30;1.00
6206;DHT22;3136;48.788;9.772;2023-02-15T01:52:23;-3.30;1.00
6206;DHT22;3136;48.788;9.772;2023-02-15T01:54:49;-3.30;1.00
6206;DHT22;3136;48.788;9.772;2023-02-15T01:57:19;-3.30;1.00
6206;DHT22;3136;48.788;9.772;2023-02-15T01:59:51;-3.40;1.00
6206;DHT22;3136;48.788;9.772;2023-02-15T02:02:19;-3.40;1.00
6206;DHT22;3136;48.788;9.772;2023-02-15T02:04:55;-3.40;1.00
6206;DHT22;3136;48.788;9.772;2023-02-15T02:07:27;-3.40;1.00
6206;DHT22;3136;48.788;9.772;2023-02-15T02:09:54;-3.40;1.00
6206;DHT22;3136;48.788;9.772;2023-02-15T02:12:21;-3.40;1.00
6206;DHT22;3136;48.788;9.772;2023-02-15T02:14:48;-3.50;1.00
6206;DHT22;3136;48.788;9.772;2023-02-15T02:17:22;-3.50;1.00
6206;DHT22;3136;48.788;9.772;2023-02-15T02:23:08;-3.50;1.00
6206;DHT22;3136;48.788;9.772;2023-02-15T02:25:56;-3.50;1.00
6206;DHT22;3136;48.788;9.772;2023-02-15T02:28:37;-3.50;1.00
6206;DHT22;3136;48.788;9.772;2023-02-15T02:34:16;-3.50;1.00
6206;DHT22;3136;48.788;9.772;2023-02-15T02:39:39;-3.60;1.00
6206;DHT22;3136;48.788;9.772;2023-02-15T02:42:18;-3.60;1.00
6206;DHT22;3136;48.788;9.772;2023-02-15T02:45:13;-3.60;1.00
6206;DHT22;3136;48.788;9.772;2023-02-15T02:47:59;-3.70;1.00
6206;DHT22;3136;48.788;9.772;2023-02-15T02:50:28;-3.60;1.00
6206;DHT22;3136;48.788;9.772;2023-02-15T02:52:56;-3.70;1.00
6206;DHT22;3136;48.788;9.772;2023-02-15T03:00:55;-3.70;1.00
6206;DHT22;3136;48.788;9.772;2023-02-15T03:03:32;-3.70;1.00
6206;DHT22;3136;48.788;9.772;2023-02-15T03:06:03;-3.60;1.00
6206;DHT22;3136;48.788;9.772;2023-02-15T03:08:37;-3.60;1.00
6206;DHT22;3136;48.788;9.772;2023-02-15T03:11:03;-3.70;1.00
6206;DHT22;3136;48.788;9.772;2023-02-15T03:13:29;-3.70;1.00
6206;DHT22;3136;48.788;9.772;2023-02-15T03:15:56;-3.60;1.00
6206;DHT22;3136;48.788;9.772;2023-02-15T03:19:05;-3.70;1.00
6206;DHT22;3136;48.788;9.772;2023-02-15T03:21:35;-3.70;1.00
6206;DHT22;3136;48.788;9.772;2023-02-15T03:24:17;-3.70;1.00
6206;DHT22;3136;48.788;9.772;2023-02-15T03:26:46;-3.80;1.00
6206;DHT22;3136;48.788;9.772;2023-02-15T03:29:15;-3.80;1.00
6206;DHT22;3136;48.788;9.772;2023-02-15T03:31:44;-3.80;1.00
6206;DHT22;3136;48.788;9.772;2023-02-15T03:34:12;-3.80;1.00
6206;DHT22;3136;48.788;9.772;2023-02-15T03:37:00;-3.80;1.00
6206;DHT22;3136;48.788;9.772;2023-02-15T03:39:33;-3.80;1.00
6206;DHT22;3136;48.788;9.772;2023-02-15T03:42:14;-3.80;1.00
6206;DHT22;3136;48.788;9.772;2023-02-15T03:45:05;-3.80;1.00
6206;DHT22;3136;48.788;9.772;2023-02-15T03:47:40;-3.80;1.00
6206;DHT22;3136;48.788;9.772;2023-02-15T03:50:33;-3.80;1.00
6206;DHT22;3136;48.788;9.772;2023-02-15T03:53:21;-3.90;1.00
6206;DHT22;3136;48.788;9.772;2023-02-15T03:55:53;-3.90;1.00
6206;DHT22;3136;48.788;9.772;2023-02-15T03:58:19;-3.90;1.00
6206;DHT22;3136;48.788;9.772;2023-02-15T04:01:13;-3.90;1.00
6206;DHT22;3136;48.788;9.772;2023-02-15T04:04:11;-3.90;1.00
6206;DHT22;3136;48.788;9.772;2023-02-15T04:06:37;-4.00;1.00
6206;DHT22;3136;48.788;9.772;2023-02-15T04:09:02;-4.00;1.00
6206;DHT22;3136;48.788;9.772;2023-02-15T04:11:46;-4.00;1.00
6206;DHT22;3136;48.788;9.772;2023-02-15T04:14:12;-4.00;1.00
6206;DHT22;3136;48.788;9.772;2023-02-15T04:16:56;-4.00;1.00
6206;DHT22;3136;48.788;9.772;2023-02-15T04:19:22;-4.10;1.00
6206;DHT22;3136;48.788;9.772;2023-02-15T04:22:06;-4.10;1.00
6206;DHT22;3136;48.788;9.772;2023-02-15T04:24:50;-4.10;1.00
6206;DHT22;3136;48.788;9.772;2023-02-15T04:27:34;-4.10;1.00
6206;DHT22;3136;48.788;9.772;2023-02-15T04:29:59;-4.10;1.00
6206;DHT22;3136;48.788;9.772;2023-02-15T04:32:25;-4.10;1.00
6206;DHT22;3136;48.788;9.772;2023-02-15T04:34:50;-4.10;1.00
6206;DHT22;3136;48.788;9.772;2023-02-15T04:37:16;-4.20;1.00
6206;DHT22;3136;48.788;9.772;2023-02-15T04:39:41;-4.20;1.00
6206;DHT22;3136;48.788;9.772;2023-02-15T04:42:07;-4.20;1.00
6206;DHT22;3136;48.788;9.772;2023-02-15T04:44:32;-4.10;1.00
6206;DHT22;3136;48.788;9.772;2023-02-15T04:46:58;-4.10;1.00
6206;DHT22;3136;48.788;9.772;2023-02-15T04:49:23;-4.10;1.00
6206;DHT22;3136;48.788;9.772;2023-02-15T04:51:49;-4.00;1.00
6206;DHT22;3136;48.788;9.772;2023-02-15T04:54:14;-4.00;1.00
6206;DHT22;3136;48.788;9.772;2023-02-15T04:56:40;-4.00;1.00
6206;DHT22;3136;48.788;9.772;2023-02-15T04:59:06;-4.00;1.00
6206;DHT22;3136;48.788;9.772;2023-02-15T05:01:31;-4.00;1.00
6206;DHT22;3136;48.788;9.772;2023-02-15T05:03:57;-4.10;1.00
6206;DHT22;3136;48.788;9.772;2023-02-15T05:06:22;-4.10;1.00
6206;DHT22;3136;48.788;9.772;2023-02-15T05:08:48;-4.10;1.00
6206;DHT22;3136;48.788;9.772;2023-02-15T05:11:13;-4.10;1.00
6206;DHT22;3136;48.788;9.772;2023-02-15T05:13:39;-4.10;1.00
6206;DHT22;3136;48.788;9.772;2023-02-15T05:16:05;-4.20;1.00
6206;DHT22;3136;48.788;9.772;2023-02-15T05:18:30;-4.20;1.00
6206;DHT22;3136;48.788;9.772;2023-02-15T05:20:56;-4.20;1.00
6206;DHT22;3136;48.788;9.772;2023-02-15T05:23:21;-4.20;1.00
6206;DHT22;3136;48.788;9.772;2023-02-15T05:25:48;-4.20;1.00
6206;DHT22;3136;48.788;9.772;2023-02-15T05:28:33;-4.20;1.00
6206;DHT22;3136;48.788;9.772;2023-02-15T05:31:11;-4.30;1.00
6206;DHT22;3136;48.788;9.772;2023-02-15T05:33:37;-4.30;1.00
6206;DHT22;3136;48.788;9.772;2023-02-15T05:36:03;-4.30;1.00
6206;DHT22;3136;48.788;9.772;2023-02-15T05:38:29;-4.30;1.00
6206;DHT22;3136;48.788;9.772;2023-02-15T05:40:55;-4.20;1.00
6206;DHT22;3136;48.788;9.772;2023-02-15T05:43:21;-4.20;1.00
6206;DHT22;3136;48.788;9.772;2023-02-15T05:45:49;-4.20;1.00
6206;DHT22;3136;48.788;9.772;2023-02-15T05:48:17;-4.20;1.00
6206;DHT22;3136;48.788;9.772;2023-02-15T05:50:43;-4.20;1.00
6206;DHT22;3136;48.788;9.772;2023-02-15T05:53:09;-4.20;1.00
6206;DHT22;3136;48.788;9.772;2023-02-15T05:55:38;-4.20;1.00
6206;DHT22;3136;48.788;9.772;2023-02-15T05:58:04;-4.30;1.00
6206;DHT22;3136;48.788;9.772;2023-02-15T06:00:29;-4.30;1.00
6206;DHT22;3136;48.788;9.772;2023-02-15T06:02:55;-4.30;1.00
6206;DHT22;3136;48.788;9.772;2023-02-15T06:05:20;-4.30;1.00
6206;DHT22;3136;48.788;9.772;2023-02-15T06:07:46;-4.30;1.00
6206;DHT22;3136;48.788;9.772;2023-02-15T06:10:12;-4.30;1.00
6206;DHT22;3136;48.788;9.772;2023-02-15T06:12:37;-4.30;1.00
6206;DHT22;3136;48.788;9.772;2023-02-15T06:15:04;-4.30;1.00
6206;DHT22;3136;48.788;9.772;2023-02-15T06:17:30;-4.30;1.00
6206;DHT22;3136;48.788;9.772;2023-02-15T06:19:55;-4.30;1.00
6206;DHT22;3136;48.788;9.772;2023-02-15T06:22:21;-4.30;1.00
6206;DHT22;3136;48.788;9.772;2023-02-15T06:24:47;-4.30;1.00
6206;DHT22;3136;48.788;9.772;2023-02-15T06:27:12;-4.30;1.00
6206;DHT22;3136;48.788;9.772;2023-02-15T06:29:38;-4.40;1.00
6206;DHT22;3136;48.788;9.772;2023-02-15T06:32:04;-4.40;1.00
6206;DHT22;3136;48.788;9.772;2023-02-15T06:34:30;-4.30;1.00
6206;DHT22;3136;48.788;9.772;2023-02-15T06:36:56;-4.30;1.00
6206;DHT22;3136;48.788;9.772;2023-02-15T06:39:21;-4.30;1.00
6206;DHT22;3136;48.788;9.772;2023-02-15T06:41:47;-4.30;1.00
6206;DHT22;3136;48.788;9.772;2023-02-15T06:44:13;-4.30;1.00
6206;DHT22;3136;48.788;9.772;2023-02-15T06:46:38;-4.30;1.00
6206;DHT22;3136;48.788;9.772;2023-02-15T06:49:04;-4.30;1.00
6206;DHT22;3136;48.788;9.772;2023-02-15T06:51:30;-4.30;1.00
6206;DHT22;3136;48.788;9.772;2023-02-15T06:53:55;-4.30;1.00
6206;DHT22;3136;48.788;9.772;2023-02-15T06:56:21;-4.20;1.00
6206;DHT22;3136;48.788;9.772;2023-02-15T06:58:46;-4.20;1.00
6206;DHT22;3136;48.788;9.772;2023-02-15T07:01:14;-4.20;1.00
6206;DHT22;3136;48.788;9.772;2023-02-15T07:03:40;-4.20;1.00
6206;DHT22;3136;48.788;9.772;2023-02-15T07:06:06;-4.10;1.00
6206;DHT22;3136;48.788;9.772;2023-02-15T07:08:34;-4.10;1.00
6206;DHT22;3136;48.788;9.772;2023-02-15T07:11:00;-4.00;1.00
6206;DHT22;3136;48.788;9.772;2023-02-15T07:13:44;-4.00;1.00
6206;DHT22;3136;48.788;9.772;2023-02-15T07:16:10;-4.00;1.00
6206;DHT22;3136;48.788;9.772;2023-02-15T07:18:36;-3.90;1.00
6206;DHT22;3136;48.788;9.772;2023-02-15T07:21:01;-3.90;1.00
6206;DHT22;3136;48.788;9.772;2023-02-15T07:23:28;-3.80;1.00
6206;DHT22;3136;48.788;9.772;2023-02-15T07:25:57;-3.70;1.00
6206;DHT22;3136;48.788;9.772;2023-02-15T07:28:24;-3.70;1.00
6206;DHT22;3136;48.788;9.772;2023-02-15T07:30:49;-3.60;1.00
6206;DHT22;3136;48.788;9.772;2023-02-15T07:33:15;-3.60;1.00
6206;DHT22;3136;48.788;9.772;2023-02-15T07:35:49;-3.50;1.00
6206;DHT22;3136;48.788;9.772;2023-02-15T07:38:16;-3.50;1.00
6206;DHT22;3136;48.788;9.772;2023-02-15T07:40:42;-3.40;1.00
6206;DHT22;3136;48.788;9.772;2023-02-15T07:43:08;-3.30;1.00
6206;DHT22;3136;48.788;9.772;2023-02-15T07:45:33;-3.30;1.00
6206;DHT22;3136;48.788;9.772;2023-02-15T07:48:01;-3.20;1.00
6206;DHT22;3136;48.788;9.772;2023-02-15T07:50:26;-3.20;1.00
6206;DHT22;3136;48.788;9.772;2023-02-15T07:52:52;-3.10;1.00
6206;DHT22;3136;48.788;9.772;2023-02-15T07:55:18;-3.00;1.00
6206;DHT22;3136;48.788;9.772;2023-02-15T07:57:44;-2.90;1.00
6206;DHT22;3136;48.788;9.772;2023-02-15T08:00:14;-2.80;1.00
6206;DHT22;3136;48.788;9.772;2023-02-15T08:02:41;-2.70;1.00
6206;DHT22;3136;48.788;9.772;2023-02-15T08:05:07;-2.70;1.00
6206;DHT22;3136;48.788;9.772;2023-02-15T08:07:33;-2.60;1.00
6206;DHT22;3136;48.788;9.772;2023-02-15T08:09:58;-2.50;1.00
6206;DHT22;3136;48.788;9.772;2023-02-15T08:12:26;-2.40;1.00
6206;DHT22;3136;48.788;9.772;2023-02-15T08:14:52;-2.30;1.00
6206;DHT22;3136;48.788;9.772;2023-02-15T08:17:17;-2.30;1.00
6206;DHT22;3136;48.788;9.772;2023-02-15T08:19:43;-2.20;1.00
6206;DHT22;3136;48.788;9.772;2023-02-15T08:22:13;-2.10;1.00
6206;DHT22;3136;48.788;9.772;2023-02-15T08:24:39;-2.00;1.00
6206;DHT22;3136;48.788;9.772;2023-02-15T08:27:06;-1.90;1.00
6206;DHT22;3136;48.788;9.772;2023-02-15T08:29:32;-1.80;1.00
6206;DHT22;3136;48.788;9.772;2023-02-15T08:32:01;-1.70;1.00
6206;DHT22;3136;48.788;9.772;2023-02-15T08:34:29;-1.60;1.00
6206;DHT22;3136;48.788;9.772;2023-02-15T08:36:56;-1.40;1.00
6206;DHT22;3136;48.788;9.772;2023-02-15T08:39:21;-1.30;99.90
6206;DHT22;3136;48.788;9.772;2023-02-15T08:41:48;-1.20;99.90
6206;DHT22;3136;48.788;9.772;2023-02-15T08:44:15;-1.10;99.90
6206;DHT22;3136;48.788;9.772;2023-02-15T08:46:43;-1.00;1.00
6206;DHT22;3136;48.788;9.772;2023-02-15T08:49:10;-0.90;1.00
6206;DHT22;3136;48.788;9.772;2023-02-15T08:51:38;-0.80;99.90
6206;DHT22;3136;48.788;9.772;2023-02-15T08:54:06;-0.70;99.90
6206;DHT22;3136;48.788;9.772;2023-02-15T08:56:36;-0.60;99.90
6206;DHT22;3136;48.788;9.772;2023-02-15T08:59:03;-0.40;1.00
6206;DHT22;3136;48.788;9.772;2023-02-15T09:01:31;-0.30;1.00
6206;DHT22;3136;48.788;9.772;2023-02-15T09:04:07;-0.20;99.90
6206;DHT22;3136;48.788;9.772;2023-02-15T09:06:37;-0.10;99.90
6206;DHT22;3136;48.788;9.772;2023-02-15T09:09:03;0.00;99.90
6206;DHT22;3136;48.788;9.772;2023-02-15T09:11:32;0.10;99.90
6206;DHT22;3136;48.788;9.772;2023-02-15T09:14:24;0.30;1.00
6206;DHT22;3136;48.788;9.772;2023-02-15T09:16:52;0.40;99.90
6206;DHT22;3136;48.788;9.772;2023-02-15T09:19:19;0.60;99.90
6206;DHT22;3136;48.788;9.772;2023-02-15T09:21:46;0.70;99.90
6206;DHT22;3136;48.788;9.772;2023-02-15T09:24:14;0.90;1.00
6206;DHT22;3136;48.788;9.772;2023-02-15T09:26:43;1.00;1.00
6206;DHT22;3136;48.788;9.772;2023-02-15T09:29:10;1.10;1.00
6206;DHT22;3136;48.788;9.772;2023-02-15T09:31:48;1.30;99.90
6206;DHT22;3136;48.788;9.772;2023-02-15T09:34:15;1.40;1.00
6206;DHT22;3136;48.788;9.772;2023-02-15T09:36:42;1.50;99.90
6206;DHT22;3136;48.788;9.772;2023-02-15T09:39:11;1.80;99.90
6206;DHT22;3136;48.788;9.772;2023-02-15T09:54:37;2.90;1.00
6206;DHT22;3136;48.788;9.772;2023-02-15T10:00:02;3.30;1.00
6206;DHT22;3136;48.788;9.772;2023-02-15T10:02:55;3.50;1.00
6206;DHT22;3136;48.788;9.772;2023-02-15T10:14:04;4.30;99.90
6206;DHT22;3136;48.788;9.772;2023-02-15T10:19:59;5.30;99.90
6206;DHT22;3136;48.788;9.772;2023-02-15T10:27:51;6.70;99.90
6206;DHT22;3136;48.788;9.772;2023-02-15T10:30:55;7.00;99.90
6206;DHT22;3136;48.788;9.772;2023-02-15T10:33:40;7.40;99.90
6206;DHT22;3136;48.788;9.772;2023-02-15T10:36:36;7.80;99.90
6206;DHT22;3136;48.788;9.772;2023-02-15T10:39:09;8.20;99.90
6206;DHT22;3136;48.788;9.772;2023-02-15T10:50:25;8.90;99.90
6206;DHT22;3136;48.788;9.772;2023-02-15T10:53:09;9.20;99.90
6206;DHT22;3136;48.788;9.772;2023-02-15T11:06:26;10.40;95.60
6206;DHT22;3136;48.788;9.772;2023-02-15T11:08:57;10.80;93.70
6206;DHT22;3136;48.788;9.772;2023-02-15T11:11:36;11.00;93.70
6206;DHT22;3136;48.788;9.772;2023-02-15T11:14:14;11.20;99.90
6206;DHT22;3136;48.788;9.772;2023-02-15T11:16:45;11.40;92.10
6206;DHT22;3136;48.788;9.772;2023-02-15T11:19:27;11.60;91.70
6206;DHT22;3136;48.788;9.772;2023-02-15T11:21:58;12.00;90.60
6206;DHT22;3136;48.788;9.772;2023-02-15T11:24:27;12.10;91.20
6206;DHT22;3136;48.788;9.772;2023-02-15T11:27:17;12.20;90.20
6206;DHT22;3136;48.788;9.772;2023-02-15T11:30:04;12.20;90.50
6206;DHT22;3136;48.788;9.772;2023-02-15T11:32:45;12.60;89.60
6206;DHT22;3136;48.788;9.772;2023-02-15T11:37:40;12.70;87.40
6206;DHT22;3136;48.788;9.772;2023-02-15T11:40:26;12.90;84.80
6206;DHT22;3136;48.788;9.772;2023-02-15T11:43:04;12.50;84.50
6206;DHT22;3136;48.788;9.772;2023-02-15T11:45:34;12.40;83.70
6206;DHT22;3136;48.788;9.772;2023-02-15T11:48:01;12.30;83.60
6206;DHT22;3136;48.788;9.772;2023-02-15T11:50:33;12.30;84.30
6206;DHT22;3136;48.788;9.772;2023-02-15T11:53:02;12.40;84.80
6206;DHT22;3136;48.788;9.772;2023-02-15T11:55:28;12.50;84.00
6206;DHT22;3136;48.788;9.772;2023-02-15T11:58:14;12.70;84.30
6206;DHT22;3136;48.788;9.772;2023-02-15T12:00:44;13.00;82.30
6206;DHT22;3136;48.788;9.772;2023-02-15T12:06:02;13.30;81.50
6206;DHT22;3136;48.788;9.772;2023-02-15T12:08:38;13.30;81.20
6206;DHT22;3136;48.788;9.772;2023-02-15T12:11:09;13.30;78.60
6206;DHT22;3136;48.788;9.772;2023-02-15T12:14:09;13.40;79.60
6206;DHT22;3136;48.788;9.772;2023-02-15T12:16:53;13.70;78.20
6206;DHT22;3136;48.788;9.772;2023-02-15T12:19:37;14.50;80.60
6206;DHT22;3136;48.788;9.772;2023-02-15T12:22:04;15.70;79.30
6206;DHT22;3136;48.788;9.772;2023-02-15T12:24:34;16.60;77.10
6206;DHT22;3136;48.788;9.772;2023-02-15T12:29:46;19.00;76.10
6206;DHT22;3136;48.788;9.772;2023-02-15T12:32:27;19.90;75.40
6206;DHT22;3136;48.788;9.772;2023-02-15T12:35:06;20.50;75.50
6206;DHT22;3136;48.788;9.772;2023-02-15T12:37:33;20.80;73.00
6206;DHT22;3136;48.788;9.772;2023-02-15T12:40:02;20.80;70.90
6206;DHT22;3136;48.788;9.772;2023-02-15T12:42:41;21.40;69.40
6206;DHT22;3136;48.788;9.772;2023-02-15T12:50:37;21.60;65.30
6206;DHT22;3136;48.788;9.772;2023-02-15T12:53:13;22.30;64.30
6206;DHT22;3136;48.788;9.772;2023-02-15T12:55:50;22.50;62.80
6206;DHT22;3136;48.788;9.772;2023-02-15T12:58:21;22.70;63.80
6206;DHT22;3136;48.788;9.772;2023-02-15T13:00:50;22.80;63.20
6206;DHT22;3136;48.788;9.772;2023-02-15T13:03:26;23.10;62.10
6206;DHT22;3136;48.788;9.772;2023-02-15T13:05:53;23.10;60.70
6206;DHT22;3136;48.788;9.772;2023-02-15T13:08:22;23.70;60.70
6206;DHT22;3136;48.788;9.772;2023-02-15T13:11:07;23.90;58.60
6206;DHT22;3136;48.788;9.772;2023-02-15T13:16:24;24.70;57.60
6206;DHT22;3136;48.788;9.772;2023-02-15T13:18:53;24.70;57.70
6206;DHT22;3136;48.788;9.772;2023-02-15T13:21:23;24.60;56.70
6206;DHT22;3136;48.788;9.772;2023-02-15T13:24:06;24.60;54.60
6206;DHT22;3136;48.788;9.772;2023-02-15T13:26:34;24.30;54.90
6206;DHT22;3136;48.788;9.772;2023-02-15T13:29:06;24.40;55.40
6206;DHT22;3136;48.788;9.772;2023-02-15T13:31:34;23.90;53.50
6206;DHT22;3136;48.788;9.772;2023-02-15T13:34:07;24.20;53.40
6206;DHT22;3136;48.788;9.772;2023-02-15T13:47:31;24.30;50.20
6206;DHT22;3136;48.788;9.772;2023-02-15T13:50:28;24.20;48.90
6206;DHT22;3136;48.788;9.772;2023-02-15T13:53:18;24.40;49.60
6206;DHT22;3136;48.788;9.772;2023-02-15T13:56:16;25.00;50.10
6206;DHT22;3136;48.788;9.772;2023-02-15T13:59:04;25.10;50.30
6206;DHT22;3136;48.788;9.772;2023-02-15T14:13:55;22.60;45.40
6206;DHT22;3136;48.788;9.772;2023-02-15T14:16:41;21.70;44.50
6206;DHT22;3136;48.788;9.772;2023-02-15T14:21:59;21.70;44.20
6206;DHT22;3136;48.788;9.772;2023-02-15T14:29:52;20.60;42.00
6206;DHT22;3136;48.788;9.772;2023-02-15T14:32:57;20.10;43.00
6206;DHT22;3136;48.788;9.772;2023-02-15T14:35:23;19.90;41.50
6206;DHT22;3136;48.788;9.772;2023-02-15T14:40:42;18.20;40.00
6206;DHT22;3136;48.788;9.772;2023-02-15T14:44:00;16.40;39.00
6206;DHT22;3136;48.788;9.772;2023-02-15T14:49:24;12.90;39.20
6206;DHT22;3136;48.788;9.772;2023-02-15T14:56:46;13.80;41.30
6206;DHT22;3136;48.788;9.772;2023-02-15T14:59:15;14.20;40.40
6206;DHT22;3136;48.788;9.772;2023-02-15T15:01:42;14.20;41.30
6206;DHT22;3136;48.788;9.772;2023-02-15T15:04:25;14.30;41.30
6206;DHT22;3136;48.788;9.772;2023-02-15T15:07:14;14.70;40.40
6206;DHT22;3136;48.788;9.772;2023-02-15T15:09:43;13.90;42.20
6206;DHT22;3136;48.788;9.772;2023-02-15T15:14:53;12.70;41.50
6206;DHT22;3136;48.788;9.772;2023-02-15T15:20:00;12.70;44.80
6206;DHT22;3136;48.788;9.772;2023-02-15T15:22:27;12.70;42.00
6206;DHT22;3136;48.788;9.772;2023-02-15T15:24:54;12.70;42.70
6206;DHT22;3136;48.788;9.772;2023-02-15T15:27:52;12.10;42.10
6206;DHT22;3136;48.788;9.772;2023-02-15T15:33:13;10.60;44.10
6206;DHT22;3136;48.788;9.772;2023-02-15T15:36:22;10.10;49.10
6206;DHT22;3136;48.788;9.772;2023-02-15T15:42:13;9.30;61.30
6206;DHT22;3136;48.788;9.772;2023-02-15T15:49:40;8.80;66.10
6206;DHT22;3136;48.788;9.772;2023-02-15T15:52:25;8.50;73.10
6206;DHT22;3136;48.788;9.772;2023-02-15T15:55:03;7.90;85.60
6206;DHT22;3136;48.788;9.772;2023-02-15T15:57:35;7.50;95.40
6206;DHT22;3136;48.788;9.772;2023-02-15T16:00:03;7.20;99.90
6206;DHT22;3136;48.788;9.772;2023-02-15T16:02:29;7.00;99.90
6206;DHT22;3136;48.788;9.772;2023-02-15T16:05:06;6.80;99.90
6206;DHT22;3136;48.788;9.772;2023-02-15T16:07:32;6.50;99.90
6206;DHT22;3136;48.788;9.772;2023-02-15T16:10:02;6.30;99.90
6206;DHT22;3136;48.788;9.772;2023-02-15T16:12:31;6.10;99.90
6206;DHT22;3136;48.788;9.772;2023-02-15T16:14:58;5.80;99.90
6206;DHT22;3136;48.788;9.772;2023-02-15T16:17:28;5.70;99.90
6206;DHT22;3136;48.788;9.772;2023-02-15T16:20:11;5.50;99.90
6206;DHT22;3136;48.788;9.772;2023-02-15T16:22:38;5.40;99.90
6206;DHT22;3136;48.788;9.772;2023-02-15T16:25:46;5.20;99.90
6206;DHT22;3136;48.788;9.772;2023-02-15T16:28:08;5.10;99.90
6206;DHT22;3136;48.788;9.772;2023-02-15T16:30:36;4.90;99.90
6206;DHT22;3136;48.788;9.772;2023-02-15T16:33:14;4.70;99.90
6206;DHT22;3136;48.788;9.772;2023-02-15T16:35:57;4.50;99.90
6206;DHT22;3136;48.788;9.772;2023-02-15T16:41:12;4.20;99.90
6206;DHT22;3136;48.788;9.772;2023-02-15T16:43:40;4.10;99.90
6206;DHT22;3136;48.788;9.772;2023-02-15T16:46:12;4.00;99.90
6206;DHT22;3136;48.788;9.772;2023-02-15T16:48:43;3.90;99.90
6206;DHT22;3136;48.788;9.772;2023-02-15T16:51:09;3.80;99.90
6206;DHT22;3136;48.788;9.772;2023-02-15T16:53:37;3.70;99.90
6206;DHT22;3136;48.788;9.772;2023-02-15T16:56:05;3.50;1.00
6206;DHT22;3136;48.788;9.772;2023-02-15T16:58:42;3.50;1.00
6206;DHT22;3136;48.788;9.772;2023-02-15T17:01:10;3.40;1.00
6206;DHT22;3136;48.788;9.772;2023-02-15T17:03:37;3.30;1.00
6206;DHT22;3136;48.788;9.772;2023-02-15T17:06:03;3.20;1.00
6206;DHT22;3136;48.788;9.772;2023-02-15T17:08:43;3.20;1.00
6206;DHT22;3136;48.788;9.772;2023-02-15T17:11:33;3.00;1.00
6206;DHT22;3136;48.788;9.772;2023-02-15T17:16:30;2.80;1.00
6206;DHT22;3136;48.788;9.772;2023-02-15T17:18:59;2.70;1.00
6206;DHT22;3136;48.788;9.772;2023-02-15T17:21:32;2.70;1.00
6206;DHT22;3136;48.788;9.772;2023-02-15T17:24:02;2.60;1.00
6206;DHT22;3136;48.788;9.772;2023-02-15T17:26:39;2.50;1.00
6206;DHT22;3136;48.788;9.772;2023-02-15T17:32:01;2.40;1.00
6206;DHT22;3136;48.788;9.772;2023-02-15T17:34:59;2.30;57.10
6206;DHT22;3136;48.788;9.772;2023-02-15T17:39:54;2.20;99.90
6206;DHT22;3136;48.788;9.772;2023-02-15T17:42:20;2.10;99.90
6206;DHT22;3136;48.788;9.772;2023-02-15T17:44:45;2.10;99.90
6206;DHT22;3136;48.788;9.772;2023-02-15T17:47:20;2.00;99.90
6206;DHT22;3136;48.788;9.772;2023-02-15T17:49:47;1.90;99.90
6206;DHT22;3136;48.788;9.772;2023-02-15T17:52:15;1.90;99.90
6206;DHT22;3136;48.788;9.772;2023-02-15T17:54:42;1.80;99.90
6206;DHT22;3136;48.788;9.772;2023-02-15T17:57:26;1.80;99.90
6206;DHT22;3136;48.788;9.772;2023-02-15T17:59:53;1.70;99.90
6206;DHT22;3136;48.788;9.772;2023-02-15T18:02:37;1.60;1.00
6206;DHT22;3136;48.788;9.772;2023-02-15T18:05:21;1.50;1.00
6206;DHT22;3136;48.788;9.772;2023-02-15T18:08:14;1.50;1.00
6206;DHT22;3136;48.788;9.772;2023-02-15T18:10:59;1.40;1.00
6206;DHT22;3136;48.788;9.772;2023-02-15T18:13:44;1.40;1.00
6206;DHT22;3136;48.788;9.772;2023-02-15T18:16:22;1.30;1.00
6206;DHT22;3136;48.788;9.772;2023-02-15T18:18:48;1.20;1.00
6206;DHT22;3136;48.788;9.772;2023-02-15T18:21:14;1.10;1.00
6206;DHT22;3136;48.788;9.772;2023-02-15T18:23:40;1.20;1.00
6206;DHT22;3136;48.788;9.772;2023-02-15T18:26:11;0.90;12.70
6206;DHT22;3136;48.788;9.772;2023-02-15T18:28:41;0.90;92.40
6206;DHT22;3136;48.788;9.772;2023-02-15T18:31:07;0.90;99.90
6206;DHT22;3136;48.788;9.772;2023-02-15T18:36:00;0.80;99.90
6206;DHT22;3136;48.788;9.772;2023-02-15T18:38:27;0.70;99.90
6206;DHT22;3136;48.788;9.772;2023-02-15T18:40:53;0.70;99.90
6206;DHT22;3136;48.788;9.772;2023-02-15T18:43:18;0.60;1.00
6206;DHT22;3136;48.788;9.772;2023-02-15T18:45:44;0.60;1.00
6206;DHT22;3136;48.788;9.772;2023-02-15T18:48:09;0.60;1.00
6206;DHT22;3136;48.788;9.772;2023-02-15T18:50:36;0.50;1.00
6206;DHT22;3136;48.788;9.772;2023-02-15T18:53:03;0.50;1.00
6206;DHT22;3136;48.788;9.772;2023-02-15T18:55:30;0.40;1.00
6206;DHT22;3136;48.788;9.772;2023-02-15T18:58:00;0.50;16.30
6206;DHT22;3136;48.788;9.772;2023-02-15T19:00:33;0.40;57.60
6206;DHT22;3136;48.788;9.772;2023-02-15T19:03:00;0.40;99.90
6206;DHT22;3136;48.788;9.772;2023-02-15T19:05:28;0.30;99.90
6206;DHT22;3136;48.788;9.772;2023-02-15T19:07:55;0.30;99.90
6206;DHT22;3136;48.788;9.772;2023-02-15T19:10:26;0.30;1.00
6206;DHT22;3136;48.788;9.772;2023-02-15T19:12:52;0.20;1.00
6206;DHT22;3136;48.788;9.772;2023-02-15T19:15:25;0.20;1.00
6206;DHT22;3136;48.788;9.772;2023-02-15T19:17:54;0.20;1.00